sensor_id;sensor_type;location;lat;lon;timestamp;temperature;humidity
9762;DHT22;4920;49.594;11.022;2024-01-16T00:00:39;0.60;99.90
9762;DHT22;4920;49.594;11.022;2024-01-16T00:03:08;0.60;99.90
9762;DHT22;4920;49.594;11.022;2024-01-16T00:05:37;0.50;99.90
9762;DHT22;4920;49.594;11.022;2024-01-16T00:08:06;0.50;99.90
9762;DHT22;4920;49.594;11.022;2024-01-16T00:10:35;0.50;99.90
9762;DHT22;4920;49.594;11.022;2024-01-16T00:13:04;0.50;99.90
9762;DHT22;4920;49.594;11.022;2024-01-16T00:15:33;0.50;99.90
9762;DHT22;4920;49.594;11.022;2024-01-16T00:18:04;0.50;99.90
9762;DHT22;4920;49.594;11.022;2024-01-16T00:20:33;0.50;99.90
9762;DHT22;4920;49.594;11.022;2024-01-16T00:23:04;0.40;99.90
9762;DHT22;4920;49.594;11.022;2024-01-16T00:25:33;0.50;99.90
9762;DHT22;4920;49.594;11.022;2024-01-16T00:28:02;0.40;99.90
9762;DHT22;4920;49.594;11.022;2024-01-16T00:30:31;0.40;99.90
9762;DHT22;4920;49.594;11.022;2024-01-16T00:33:01;0.40;99.90
9762;DHT22;4920;49.594;11.022;2024-01-16T00:35:32;0.40;99.90
9762;DHT22;4920;49.594;11.022;2024-01-16T00:38:01;0.40;99.90
9762;DHT22;4920;49.594;11.022;2024-01-16T00:40:29;0.40;99.90
9762;DHT22;4920;49.594;11.022;2024-01-16T00:42:58;0.40;99.90
9762;DHT22;4920;49.594;11.022;2024-01-16T00:45:27;0.30;99.90
9762;DHT22;4920;49.594;11.022;2024-01-16T00:47:57;0.40;99.90
9762;DHT22;4920;49.594;11.022;2024-01-16T00:50:26;0.40;99.90
9762;DHT22;4920;49.594;11.022;2024-01-16T00:52:58;0.30;99.90
9762;DHT22;4920;49.594;11.022;2024-01-16T00:55:27;0.30;99.90
9762;DHT22;4920;49.594;11.022;2024-01-16T00:57:56;0.30;99.90
9762;DHT22;4920;49.594;11.022;2024-01-16T01:00:25;0.30;99.90
9762;DHT22;4920;49.594;11.022;2024-01-16T01:02:54;0.30;99.90
9762;DHT22;4920;49.594;11.022;2024-01-16T01:05:23;0.30;99.90
9762;DHT22;4920;49.594;11.022;2024-01-16T01:07:57;0.30;99.90
9762;DHT22;4920;49.594;11.022;2024-01-16T01:10:27;0.30;99.90
9762;DHT22;4920;49.594;11.022;2024-01-16T01:12:56;0.30;99.90
9762;DHT22;4920;49.594;11.022;2024-01-16T01:15:25;0.20;99.90
9762;DHT22;4920;49.594;11.022;2024-01-16T01:17:54;0.30;99.90
9762;DHT22;4920;49.594;11.022;2024-01-16T01:20:23;0.30;99.90
9762;DHT22;4920;49.594;11.022;2024-01-16T01:22:52;0.30;99.90
9762;DHT22;4920;49.594;11.022;2024-01-16T01:25:22;0.30;99.90
9762;DHT22;4920;49.594;11.022;2024-01-16T01:27:53;0.30;99.90
9762;DHT22;4920;49.594;11.022;2024-01-16T01:30:22;0.30;99.90
9762;DHT22;4920;49.594;11.022;2024-01-16T01:32:51;0.20;99.90
9762;DHT22;4920;49.594;11.022;2024-01-16T01:35:20;0.20;99.90
9762;DHT22;4920;49.594;11.022;2024-01-16T01:37:49;0.20;99.90
9762;DHT22;4920;49.594;11.022;2024-01-16T01:40:18;0.30;99.90
9762;DHT22;4920;49.594;11.022;2024-01-16T01:42:48;0.30;99.90
9762;DHT22;4920;49.594;11.022;2024-01-16T01:45:18;0.30;99.90
9762;DHT22;4920;49.594;11.022;2024-01-16T01:47:47;0.30;99.90
9762;DHT22;4920;49.594;11.022;2024-01-16T01:50:17;0.30;99.90
9762;DHT22;4920;49.594;11.022;2024-01-16T01:52:46;0.30;99.90
9762;DHT22;4920;49.594;11.022;2024-01-16T01:55:15;0.30;99.90
9762;DHT22;4920;49.594;11.022;2024-01-16T01:57:45;0.30;99.90
9762;DHT22;4920;49.594;11.022;2024-01-16T02:00:16;0.30;99.90
9762;DHT22;4920;49.594;11.022;2024-01-16T02:02:46;0.30;99.90
9762;DHT22;4920;49.594;11.022;2024-01-16T02:05:15;0.30;99.90
9762;DHT22;4920;49.594;11.022;2024-01-16T02:07:44;0.30;99.90
9762;DHT22;4920;49.594;11.022;2024-01-16T02:10:14;0.30;99.90
9762;DHT22;4920;49.594;11.022;2024-01-16T02:12:43;0.30;99.90
9762;DHT22;4920;49.594;11.022;2024-01-16T02:15:12;0.30;99.90
9762;DHT22;4920;49.594;11.022;2024-01-16T02:17:43;0.30;99.90
9762;DHT22;4920;49.594;11.022;2024-01-16T02:20:12;0.30;99.90
9762;DHT22;4920;49.594;11.022;2024-01-16T02:22:45;0.30;99.90
9762;DHT22;4920;49.594;11.022;2024-01-16T02:25:16;0.30;99.90
9762;DHT22;4920;49.594;11.022;2024-01-16T02:27:45;0.30;99.90
9762;DHT22;4920;49.594;11.022;2024-01-16T02:30:14;0.30;99.90
9762;DHT22;4920;49.594;11.022;2024-01-16T02:32:43;0.40;99.90
9762;DHT22;4920;49.594;11.022;2024-01-16T02:35:13;0.30;99.90
9762;DHT22;4920;49.594;11.022;2024-01-16T02:37:42;0.40;99.90
9762;DHT22;4920;49.594;11.022;2024-01-16T02:40:12;0.40;99.90
9762;DHT22;4920;49.594;11.022;2024-01-16T02:42:42;0.40;99.90
9762;DHT22;4920;49.594;11.022;2024-01-16T02:45:11;0.40;99.90
9762;DHT22;4920;49.594;11.022;2024-01-16T02:47:41;0.30;99.90
9762;DHT22;4920;49.594;11.022;2024-01-16T02:50:09;0.30;99.90
9762;DHT22;4920;49.594;11.022;2024-01-16T02:52:38;0.30;99.90
9762;DHT22;4920;49.594;11.022;2024-01-16T02:55:08;0.30;99.90
9762;DHT22;4920;49.594;11.022;2024-01-16T02:57:37;0.30;99.90
9762;DHT22;4920;49.594;11.022;2024-01-16T03:00:08;0.30;99.90
9762;DHT22;4920;49.594;11.022;2024-01-16T03:02:38;0.30;99.90
9762;DHT22;4920;49.594;11.022;2024-01-16T03:05:08;0.30;99.90
9762;DHT22;4920;49.594;11.022;2024-01-16T03:07:37;0.30;99.90
9762;DHT22;4920;49.594;11.022;2024-01-16T03:10:06;0.30;99.90
9762;DHT22;4920;49.594;11.022;2024-01-16T03:12:35;0.30;99.90
9762;DHT22;4920;49.594;11.022;2024-01-16T03:15:06;0.20;99.90
9762;DHT22;4920;49.594;11.022;2024-01-16T03:17:36;0.20;99.90
9762;DHT22;4920;49.594;11.022;2024-01-16T03:20:06;0.20;99.90
9762;DHT22;4920;49.594;11.022;2024-01-16T03:22:36;0.20;99.90
9762;DHT22;4920;49.594;11.022;2024-01-16T03:25:07;0.20;99.90
9762;DHT22;4920;49.594;11.022;2024-01-16T03:27:36;0.20;99.90
9762;DHT22;4920;49.594;11.022;2024-01-16T03:30:08;0.20;99.90
9762;DHT22;4920;49.594;11.022;2024-01-16T03:32:37;0.20;99.90
9762;DHT22;4920;49.594;11.022;2024-01-16T03:35:08;0.20;99.90
9762;DHT22;4920;49.594;11.022;2024-01-16T03:37:38;0.20;99.90
9762;DHT22;4920;49.594;11.022;2024-01-16T03:40:07;0.20;99.90
9762;DHT22;4920;49.594;11.022;2024-01-16T03:42:37;0.20;99.90
9762;DHT22;4920;49.594;11.022;2024-01-16T03:45:08;0.30;99.90
9762;DHT22;4920;49.594;11.022;2024-01-16T03:47:40;0.30;99.90
9762;DHT22;4920;49.594;11.022;2024-01-16T03:50:09;0.20;99.90
9762;DHT22;4920;49.594;11.022;2024-01-16T03:52:38;0.20;99.90
9762;DHT22;4920;49.594;11.022;2024-01-16T03:55:07;0.20;99.90
9762;DHT22;4920;49.594;11.022;2024-01-16T03:57:36;0.30;99.90
9762;DHT22;4920;49.594;11.022;2024-01-16T04:00:08;0.30;99.90
9762;DHT22;4920;49.594;11.022;2024-01-16T04:02:39;0.30;99.90
9762;DHT22;4920;49.594;11.022;2024-01-16T04:05:09;0.20;99.90
9762;DHT22;4920;49.594;11.022;2024-01-16T04:07:38;0.20;99.90
9762;DHT22;4920;49.594;11.022;2024-01-16T04:10:08;0.20;99.90
9762;DHT22;4920;49.594;11.022;2024-01-16T04:12:37;0.10;99.90
9762;DHT22;4920;49.594;11.022;2024-01-16T04:15:08;0.10;99.90
9762;DHT22;4920;49.594;11.022;2024-01-16T04:17:37;0.00;99.90
9762;DHT22;4920;49.594;11.022;2024-01-16T04:20:07;-0.10;99.90
9762;DHT22;4920;49.594;11.022;2024-01-16T04:22:36;-0.10;99.90
9762;DHT22;4920;49.594;11.022;2024-01-16T04:25:06;-0.20;99.90
9762;DHT22;4920;49.594;11.022;2024-01-16T04:27:35;-0.20;99.90
9762;DHT22;4920;49.594;11.022;2024-01-16T04:30:04;-0.10;99.90
9762;DHT22;4920;49.594;11.022;2024-01-16T04:32:35;-0.20;99.90
9762;DHT22;4920;49.594;11.022;2024-01-16T04:35:05;-0.20;99.90
9762;DHT22;4920;49.594;11.022;2024-01-16T04:37:34;-0.20;99.90
9762;DHT22;4920;49.594;11.022;2024-01-16T04:40:03;-0.20;99.90
9762;DHT22;4920;49.594;11.022;2024-01-16T04:42:33;-0.40;99.90
9762;DHT22;4920;49.594;11.022;2024-01-16T04:45:02;-0.40;99.90
9762;DHT22;4920;49.594;11.022;2024-01-16T04:47:31;-0.50;99.90
9762;DHT22;4920;49.594;11.022;2024-01-16T04:50:02;-0.50;99.90
9762;DHT22;4920;49.594;11.022;2024-01-16T04:52:31;-0.50;99.90
9762;DHT22;4920;49.594;11.022;2024-01-16T04:55:00;-0.50;99.90
9762;DHT22;4920;49.594;11.022;2024-01-16T04:57:29;-0.50;99.90
9762;DHT22;4920;49.594;11.022;2024-01-16T04:59:58;-0.50;99.90
9762;DHT22;4920;49.594;11.022;2024-01-16T05:02:27;-0.50;99.90
9762;DHT22;4920;49.594;11.022;2024-01-16T05:04:56;-0.60;99.90
9762;DHT22;4920;49.594;11.022;2024-01-16T05:07:27;-0.60;99.90
9762;DHT22;4920;49.594;11.022;2024-01-16T05:09:56;-0.60;99.90
9762;DHT22;4920;49.594;11.022;2024-01-16T05:12:25;-0.60;99.90
9762;DHT22;4920;49.594;11.022;2024-01-16T05:14:54;-0.50;99.90
9762;DHT22;4920;49.594;11.022;2024-01-16T05:17:23;-0.50;99.90
9762;DHT22;4920;49.594;11.022;2024-01-16T05:19:52;-0.50;99.90
9762;DHT22;4920;49.594;11.022;2024-01-16T05:22:21;-0.40;99.90
9762;DHT22;4920;49.594;11.022;2024-01-16T05:24:52;-0.40;99.90
9762;DHT22;4920;49.594;11.022;2024-01-16T05:27:21;-0.50;99.90
9762;DHT22;4920;49.594;11.022;2024-01-16T05:29:50;-0.40;99.90
9762;DHT22;4920;49.594;11.022;2024-01-16T05:32:19;-0.40;99.90
9762;DHT22;4920;49.594;11.022;2024-01-16T05:34:48;-0.50;99.90
9762;DHT22;4920;49.594;11.022;2024-01-16T05:37:17;-0.40;99.90
9762;DHT22;4920;49.594;11.022;2024-01-16T05:39:46;-0.40;99.90
9762;DHT22;4920;49.594;11.022;2024-01-16T05:42:17;-0.40;99.90
9762;DHT22;4920;49.594;11.022;2024-01-16T05:44:46;-0.30;99.90
9762;DHT22;4920;49.594;11.022;2024-01-16T05:47:15;-0.30;99.90
9762;DHT22;4920;49.594;11.022;2024-01-16T05:49:44;-0.20;99.90
9762;DHT22;4920;49.594;11.022;2024-01-16T05:52:13;-0.20;99.90
9762;DHT22;4920;49.594;11.022;2024-01-16T05:54:42;-0.20;99.90
9762;DHT22;4920;49.594;11.022;2024-01-16T05:57:11;-0.20;99.90
9762;DHT22;4920;49.594;11.022;2024-01-16T05:59:42;-0.20;99.90
9762;DHT22;4920;49.594;11.022;2024-01-16T06:02:11;-0.20;99.90
9762;DHT22;4920;49.594;11.022;2024-01-16T06:04:40;-0.20;99.90
9762;DHT22;4920;49.594;11.022;2024-01-16T06:07:09;-0.10;99.90
9762;DHT22;4920;49.594;11.022;2024-01-16T06:09:39;-0.10;99.90
9762;DHT22;4920;49.594;11.022;2024-01-16T06:12:08;-0.10;99.90
9762;DHT22;4920;49.594;11.022;2024-01-16T06:14:39;-0.10;99.90
9762;DHT22;4920;49.594;11.022;2024-01-16T06:17:09;-0.10;99.90
9762;DHT22;4920;49.594;11.022;2024-01-16T06:20:01;-0.10;99.90
9762;DHT22;4920;49.594;11.022;2024-01-16T06:22:29;-0.10;99.90
9762;DHT22;4920;49.594;11.022;2024-01-16T06:24:58;-0.10;99.90
9762;DHT22;4920;49.594;11.022;2024-01-16T06:27:29;-0.10;99.90
9762;DHT22;4920;49.594;11.022;2024-01-16T06:29:58;0.00;99.90
9762;DHT22;4920;49.594;11.022;2024-01-16T06:32:28;-0.10;99.90
9762;DHT22;4920;49.594;11.022;2024-01-16T06:34:57;0.00;99.90
9762;DHT22;4920;49.594;11.022;2024-01-16T06:37:26;0.00;99.90
9762;DHT22;4920;49.594;11.022;2024-01-16T06:39:55;0.00;99.90
9762;DHT22;4920;49.594;11.022;2024-01-16T06:42:24;0.00;99.90
9762;DHT22;4920;49.594;11.022;2024-01-16T06:44:52;0.00;99.90
9762;DHT22;4920;49.594;11.022;2024-01-16T06:47:21;0.10;99.90
9762;DHT22;4920;49.594;11.022;2024-01-16T06:49:52;0.10;99.90
9762;DHT22;4920;49.594;11.022;2024-01-16T06:52:21;0.00;99.90
9762;DHT22;4920;49.594;11.022;2024-01-16T06:54:51;0.10;99.90
9762;DHT22;4920;49.594;11.022;2024-01-16T06:57:20;0.00;99.90
9762;DHT22;4920;49.594;11.022;2024-01-16T06:59:49;0.10;99.90
9762;DHT22;4920;49.594;11.022;2024-01-16T07:02:18;0.10;99.90
9762;DHT22;4920;49.594;11.022;2024-01-16T07:04:47;0.00;99.90
9762;DHT22;4920;49.594;11.022;2024-01-16T07:07:17;0.10;99.90
9762;DHT22;4920;49.594;11.022;2024-01-16T07:09:46;0.10;99.90
9762;DHT22;4920;49.594;11.022;2024-01-16T07:12:15;0.10;99.90
9762;DHT22;4920;49.594;11.022;2024-01-16T07:14:44;0.10;99.90
9762;DHT22;4920;49.594;11.022;2024-01-16T07:17:13;0.10;99.90
9762;DHT22;4920;49.594;11.022;2024-01-16T07:19:42;0.00;99.90
9762;DHT22;4920;49.594;11.022;2024-01-16T07:22:11;0.10;99.90
9762;DHT22;4920;49.594;11.022;2024-01-16T07:24:43;0.00;99.90
9762;DHT22;4920;49.594;11.022;2024-01-16T07:27:12;0.00;99.90
9762;DHT22;4920;49.594;11.022;2024-01-16T07:29:41;0.00;99.90
9762;DHT22;4920;49.594;11.022;2024-01-16T07:32:10;0.00;99.90
9762;DHT22;4920;49.594;11.022;2024-01-16T07:34:39;-0.10;99.90
9762;DHT22;4920;49.594;11.022;2024-01-16T07:37:08;-0.10;99.90
9762;DHT22;4920;49.594;11.022;2024-01-16T07:39:37;-0.10;99.90
9762;DHT22;4920;49.594;11.022;2024-01-16T07:42:08;-0.10;99.90
9762;DHT22;4920;49.594;11.022;2024-01-16T07:44:37;-0.10;99.90
9762;DHT22;4920;49.594;11.022;2024-01-16T07:47:06;0.00;99.90
9762;DHT22;4920;49.594;11.022;2024-01-16T07:49:35;0.10;99.90
9762;DHT22;4920;49.594;11.022;2024-01-16T07:52:04;0.10;99.90
9762;DHT22;4920;49.594;11.022;2024-01-16T07:54:33;0.10;99.90
9762;DHT22;4920;49.594;11.022;2024-01-16T07:57:03;0.20;99.90
9762;DHT22;4920;49.594;11.022;2024-01-16T07:59:33;0.30;99.90
9762;DHT22;4920;49.594;11.022;2024-01-16T08:02:02;0.30;99.90
9762;DHT22;4920;49.594;11.022;2024-01-16T08:04:32;0.30;99.90
9762;DHT22;4920;49.594;11.022;2024-01-16T08:07:01;0.40;99.90
9762;DHT22;4920;49.594;11.022;2024-01-16T08:09:30;0.40;99.90
9762;DHT22;4920;49.594;11.022;2024-01-16T08:11:59;0.50;99.90
9762;DHT22;4920;49.594;11.022;2024-01-16T08:14:29;0.50;99.90
9762;DHT22;4920;49.594;11.022;2024-01-16T08:17:00;0.60;99.90
9762;DHT22;4920;49.594;11.022;2024-01-16T08:19:29;0.60;99.90
9762;DHT22;4920;49.594;11.022;2024-01-16T08:21:58;0.60;99.90
9762;DHT22;4920;49.594;11.022;2024-01-16T08:24:26;0.60;99.90
9762;DHT22;4920;49.594;11.022;2024-01-16T08:26:55;0.60;99.90
9762;DHT22;4920;49.594;11.022;2024-01-16T08:29:26;0.70;99.90
9762;DHT22;4920;49.594;11.022;2024-01-16T08:31:55;0.80;99.90
9762;DHT22;4920;49.594;11.022;2024-01-16T08:34:25;0.80;99.90
9762;DHT22;4920;49.594;11.022;2024-01-16T08:36:54;0.90;99.90
9762;DHT22;4920;49.594;11.022;2024-01-16T08:39:24;1.00;99.90
9762;DHT22;4920;49.594;11.022;2024-01-16T08:41:55;1.10;99.90
9762;DHT22;4920;49.594;11.022;2024-01-16T08:44:25;1.10;99.90
9762;DHT22;4920;49.594;11.022;2024-01-16T08:46:54;1.20;99.90
9762;DHT22;4920;49.594;11.022;2024-01-16T08:49:25;1.30;99.90
9762;DHT22;4920;49.594;11.022;2024-01-16T08:51:54;1.40;99.90
9762;DHT22;4920;49.594;11.022;2024-01-16T08:54:23;1.50;99.90
9762;DHT22;4920;49.594;11.022;2024-01-16T08:56:53;1.60;99.90
9762;DHT22;4920;49.594;11.022;2024-01-16T08:59:23;1.70;99.90
9762;DHT22;4920;49.594;11.022;2024-01-16T09:01:52;1.80;99.90
9762;DHT22;4920;49.594;11.022;2024-01-16T09:04:21;1.90;99.90
9762;DHT22;4920;49.594;11.022;2024-01-16T09:06:52;2.00;99.90
9762;DHT22;4920;49.594;11.022;2024-01-16T09:09:21;2.10;99.90
9762;DHT22;4920;49.594;11.022;2024-01-16T09:11:50;2.10;99.90
9762;DHT22;4920;49.594;11.022;2024-01-16T09:14:19;2.20;99.90
9762;DHT22;4920;49.594;11.022;2024-01-16T09:16:48;2.20;99.90
9762;DHT22;4920;49.594;11.022;2024-01-16T09:19:18;2.30;99.90
9762;DHT22;4920;49.594;11.022;2024-01-16T09:21:47;2.30;99.90
9762;DHT22;4920;49.594;11.022;2024-01-16T09:24:18;2.40;99.90
9762;DHT22;4920;49.594;11.022;2024-01-16T09:26:47;2.40;99.90
9762;DHT22;4920;49.594;11.022;2024-01-16T09:29:16;2.50;99.90
9762;DHT22;4920;49.594;11.022;2024-01-16T09:31:45;2.40;99.90
9762;DHT22;4920;49.594;11.022;2024-01-16T09:34:14;2.50;99.90
9762;DHT22;4920;49.594;11.022;2024-01-16T09:36:44;2.50;99.90
9762;DHT22;4920;49.594;11.022;2024-01-16T09:39:14;2.50;99.90
9762;DHT22;4920;49.594;11.022;2024-01-16T09:41:47;2.50;99.90
9762;DHT22;4920;49.594;11.022;2024-01-16T09:44:16;2.50;99.90
9762;DHT22;4920;49.594;11.022;2024-01-16T09:46:46;2.50;99.90
9762;DHT22;4920;49.594;11.022;2024-01-16T09:49:17;2.40;99.90
9762;DHT22;4920;49.594;11.022;2024-01-16T09:51:47;2.30;99.90
9762;DHT22;4920;49.594;11.022;2024-01-16T09:54:16;2.30;99.90
9762;DHT22;4920;49.594;11.022;2024-01-16T09:56:47;2.20;99.90
9762;DHT22;4920;49.594;11.022;2024-01-16T09:59:20;2.20;99.90
9762;DHT22;4920;49.594;11.022;2024-01-16T10:01:52;2.20;99.90
9762;DHT22;4920;49.594;11.022;2024-01-16T10:04:23;2.20;99.90
9762;DHT22;4920;49.594;11.022;2024-01-16T10:06:53;2.10;99.90
9762;DHT22;4920;49.594;11.022;2024-01-16T10:09:25;2.10;99.90
9762;DHT22;4920;49.594;11.022;2024-01-16T10:11:56;2.00;99.90
9762;DHT22;4920;49.594;11.022;2024-01-16T10:14:25;2.00;99.90
9762;DHT22;4920;49.594;11.022;2024-01-16T10:16:58;2.00;99.90
9762;DHT22;4920;49.594;11.022;2024-01-16T10:19:30;2.00;99.90
9762;DHT22;4920;49.594;11.022;2024-01-16T10:22:19;2.10;99.90
9762;DHT22;4920;49.594;11.022;2024-01-16T10:25:04;2.30;99.90
9762;DHT22;4920;49.594;11.022;2024-01-16T10:27:36;2.40;99.90
9762;DHT22;4920;49.594;11.022;2024-01-16T10:30:06;2.50;99.90
9762;DHT22;4920;49.594;11.022;2024-01-16T10:32:37;2.50;99.90
9762;DHT22;4920;49.594;11.022;2024-01-16T10:35:08;2.70;99.90
9762;DHT22;4920;49.594;11.022;2024-01-16T10:37:44;2.70;99.90
9762;DHT22;4920;49.594;11.022;2024-01-16T10:40:16;2.80;99.90
9762;DHT22;4920;49.594;11.022;2024-01-16T10:42:59;2.90;99.90
9762;DHT22;4920;49.594;11.022;2024-01-16T10:45:29;3.20;99.90
9762;DHT22;4920;49.594;11.022;2024-01-16T10:48:01;3.30;99.90
9762;DHT22;4920;49.594;11.022;2024-01-16T10:50:32;3.50;99.90
9762;DHT22;4920;49.594;11.022;2024-01-16T10:53:04;3.60;99.90
9762;DHT22;4920;49.594;11.022;2024-01-16T10:55:38;3.60;99.90
9762;DHT22;4920;49.594;11.022;2024-01-16T10:58:13;3.70;99.90
9762;DHT22;4920;49.594;11.022;2024-01-16T11:00:43;3.70;99.90
9762;DHT22;4920;49.594;11.022;2024-01-16T11:03:18;3.70;99.90
9762;DHT22;4920;49.594;11.022;2024-01-16T11:05:53;3.60;99.90
9762;DHT22;4920;49.594;11.022;2024-01-16T11:08:23;3.50;99.90
9762;DHT22;4920;49.594;11.022;2024-01-16T11:10:59;3.50;99.90
9762;DHT22;4920;49.594;11.022;2024-01-16T11:13:33;3.40;99.90
9762;DHT22;4920;49.594;11.022;2024-01-16T11:16:03;3.30;99.90
9762;DHT22;4920;49.594;11.022;2024-01-16T11:18:34;3.30;99.90
9762;DHT22;4920;49.594;11.022;2024-01-16T11:21:06;3.20;99.90
9762;DHT22;4920;49.594;11.022;2024-01-16T11:23:41;3.20;99.90
9762;DHT22;4920;49.594;11.022;2024-01-16T11:26:24;3.10;99.90
9762;DHT22;4920;49.594;11.022;2024-01-16T11:28:56;3.10;99.90
9762;DHT22;4920;49.594;11.022;2024-01-16T11:31:31;3.00;99.90
9762;DHT22;4920;49.594;11.022;2024-01-16T11:34:01;2.90;99.90
9762;DHT22;4920;49.594;11.022;2024-01-16T11:36:58;2.90;99.90
9762;DHT22;4920;49.594;11.022;2024-01-16T11:39:30;2.90;99.90
9762;DHT22;4920;49.594;11.022;2024-01-16T11:41:59;3.00;99.90
9762;DHT22;4920;49.594;11.022;2024-01-16T11:44:42;3.10;99.90
9762;DHT22;4920;49.594;11.022;2024-01-16T11:47:16;3.20;99.90
9762;DHT22;4920;49.594;11.022;2024-01-16T11:49:46;3.30;99.90
9762;DHT22;4920;49.594;11.022;2024-01-16T11:52:15;3.30;99.90
9762;DHT22;4920;49.594;11.022;2024-01-16T11:55:25;3.30;99.90
9762;DHT22;4920;49.594;11.022;2024-01-16T11:58:10;3.40;99.90
9762;DHT22;4920;49.594;11.022;2024-01-16T12:00:48;3.40;99.90
9762;DHT22;4920;49.594;11.022;2024-01-16T12:03:22;3.40;99.90
9762;DHT22;4920;49.594;11.022;2024-01-16T12:06:02;3.40;99.90
9762;DHT22;4920;49.594;11.022;2024-01-16T12:08:35;3.50;99.90
9762;DHT22;4920;49.594;11.022;2024-01-16T12:11:05;3.60;99.90
9762;DHT22;4920;49.594;11.022;2024-01-16T12:13:34;3.70;99.90
9762;DHT22;4920;49.594;11.022;2024-01-16T12:16:05;3.90;99.90
9762;DHT22;4920;49.594;11.022;2024-01-16T12:18:34;4.00;99.90
9762;DHT22;4920;49.594;11.022;2024-01-16T12:21:11;4.00;99.90
9762;DHT22;4920;49.594;11.022;2024-01-16T12:23:42;4.10;99.90
9762;DHT22;4920;49.594;11.022;2024-01-16T12:26:22;4.30;99.90
9762;DHT22;4920;49.594;11.022;2024-01-16T12:28:51;4.40;99.90
9762;DHT22;4920;49.594;11.022;2024-01-16T12:31:28;4.40;99.90
9762;DHT22;4920;49.594;11.022;2024-01-16T12:34:05;4.60;99.90
9762;DHT22;4920;49.594;11.022;2024-01-16T12:36:36;4.70;99.90
9762;DHT22;4920;49.594;11.022;2024-01-16T12:39:06;4.90;99.90
9762;DHT22;4920;49.594;11.022;2024-01-16T12:41:42;5.10;99.90
9762;DHT22;4920;49.594;11.022;2024-01-16T12:44:13;5.30;99.90
9762;DHT22;4920;49.594;11.022;2024-01-16T12:46:54;5.40;99.90
9762;DHT22;4920;49.594;11.022;2024-01-16T12:49:24;5.60;99.90
9762;DHT22;4920;49.594;11.022;2024-01-16T12:52:14;5.60;99.90
9762;DHT22;4920;49.594;11.022;2024-01-16T12:54:43;5.50;99.90
9762;DHT22;4920;49.594;11.022;2024-01-16T12:57:17;5.40;99.90
9762;DHT22;4920;49.594;11.022;2024-01-16T12:59:48;5.40;99.90
9762;DHT22;4920;49.594;11.022;2024-01-16T13:02:22;5.30;99.90
9762;DHT22;4920;49.594;11.022;2024-01-16T13:04:58;5.20;99.90
9762;DHT22;4920;49.594;11.022;2024-01-16T13:07:28;5.20;99.90
9762;DHT22;4920;49.594;11.022;2024-01-16T13:10:06;5.30;99.90
9762;DHT22;4920;49.594;11.022;2024-01-16T13:12:36;5.50;99.90
9762;DHT22;4920;49.594;11.022;2024-01-16T13:15:05;5.60;99.90
9762;DHT22;4920;49.594;11.022;2024-01-16T13:17:37;5.80;99.90
9762;DHT22;4920;49.594;11.022;2024-01-16T13:20:07;5.90;99.90
9762;DHT22;4920;49.594;11.022;2024-01-16T13:22:38;5.80;99.90
9762;DHT22;4920;49.594;11.022;2024-01-16T13:25:14;5.70;99.90
9762;DHT22;4920;49.594;11.022;2024-01-16T13:27:43;5.60;99.90
9762;DHT22;4920;49.594;11.022;2024-01-16T13:30:12;5.40;99.90
9762;DHT22;4920;49.594;11.022;2024-01-16T13:32:43;5.20;99.90
9762;DHT22;4920;49.594;11.022;2024-01-16T13:35:12;5.00;99.90
9762;DHT22;4920;49.594;11.022;2024-01-16T13:37:41;4.70;99.90
9762;DHT22;4920;49.594;11.022;2024-01-16T13:40:10;4.50;99.90
9762;DHT22;4920;49.594;11.022;2024-01-16T13:42:43;4.40;99.90
9762;DHT22;4920;49.594;11.022;2024-01-16T13:45:12;4.40;99.90
9762;DHT22;4920;49.594;11.022;2024-01-16T13:47:43;4.20;99.90
9762;DHT22;4920;49.594;11.022;2024-01-16T13:50:12;4.20;99.90
9762;DHT22;4920;49.594;11.022;2024-01-16T13:52:42;4.10;99.90
9762;DHT22;4920;49.594;11.022;2024-01-16T13:55:11;3.90;99.90
9762;DHT22;4920;49.594;11.022;2024-01-16T13:57:40;3.60;99.90
9762;DHT22;4920;49.594;11.022;2024-01-16T14:00:11;3.40;99.90
9762;DHT22;4920;49.594;11.022;2024-01-16T14:02:44;3.10;99.90
9762;DHT22;4920;49.594;11.022;2024-01-16T14:05:15;2.80;99.90
9762;DHT22;4920;49.594;11.022;2024-01-16T14:07:47;2.70;99.90
9762;DHT22;4920;49.594;11.022;2024-01-16T14:10:19;2.50;99.90
9762;DHT22;4920;49.594;11.022;2024-01-16T14:12:50;2.40;99.90
9762;DHT22;4920;49.594;11.022;2024-01-16T14:15:20;2.30;99.90
9762;DHT22;4920;49.594;11.022;2024-01-16T14:17:54;2.20;99.90
9762;DHT22;4920;49.594;11.022;2024-01-16T14:20:24;2.10;99.90
9762;DHT22;4920;49.594;11.022;2024-01-16T14:22:55;2.10;99.90
9762;DHT22;4920;49.594;11.022;2024-01-16T14:25:25;2.00;99.90
9762;DHT22;4920;49.594;11.022;2024-01-16T14:27:59;2.00;99.90
9762;DHT22;4920;49.594;11.022;2024-01-16T14:30:32;2.00;99.90
9762;DHT22;4920;49.594;11.022;2024-01-16T14:33:03;2.00;99.90
9762;DHT22;4920;49.594;11.022;2024-01-16T14:35:34;1.90;99.90
9762;DHT22;4920;49.594;11.022;2024-01-16T14:38:03;1.90;99.90
9762;DHT22;4920;49.594;11.022;2024-01-16T14:40:33;1.90;99.90
9762;DHT22;4920;49.594;11.022;2024-01-16T14:43:03;2.00;99.90
9762;DHT22;4920;49.594;11.022;2024-01-16T14:45:32;2.00;99.90
9762;DHT22;4920;49.594;11.022;2024-01-16T14:48:03;2.00;99.90
9762;DHT22;4920;49.594;11.022;2024-01-16T14:50:32;2.00;99.90
9762;DHT22;4920;49.594;11.022;2024-01-16T14:53:02;2.10;99.90
9762;DHT22;4920;49.594;11.022;2024-01-16T14:55:33;2.10;99.90
9762;DHT22;4920;49.594;11.022;2024-01-16T14:58:03;2.10;99.90
9762;DHT22;4920;49.594;11.022;2024-01-16T15:00:31;2.00;99.90
9762;DHT22;4920;49.594;11.022;2024-01-16T15:03:00;2.00;99.90
9762;DHT22;4920;49.594;11.022;2024-01-16T15:05:31;2.00;99.90
9762;DHT22;4920;49.594;11.022;2024-01-16T15:08:00;1.90;99.90
9762;DHT22;4920;49.594;11.022;2024-01-16T15:10:29;1.80;99.90
9762;DHT22;4920;49.594;11.022;2024-01-16T15:12:58;1.80;99.90
9762;DHT22;4920;49.594;11.022;2024-01-16T15:15:27;1.70;99.90
9762;DHT22;4920;49.594;11.022;2024-01-16T15:17:56;1.70;99.90
9762;DHT22;4920;49.594;11.022;2024-01-16T15:20:25;1.60;99.90
9762;DHT22;4920;49.594;11.022;2024-01-16T15:22:56;1.50;99.90
9762;DHT22;4920;49.594;11.022;2024-01-16T15:25:25;1.50;99.90
9762;DHT22;4920;49.594;11.022;2024-01-16T15:27:53;1.40;99.90
9762;DHT22;4920;49.594;11.022;2024-01-16T15:30:22;1.40;99.90
9762;DHT22;4920;49.594;11.022;2024-01-16T15:32:55;1.30;99.90
9762;DHT22;4920;49.594;11.022;2024-01-16T15:35:24;1.20;99.90
9762;DHT22;4920;49.594;11.022;2024-01-16T15:37:55;1.20;99.90
9762;DHT22;4920;49.594;11.022;2024-01-16T15:40:23;1.10;99.90
9762;DHT22;4920;49.594;11.022;2024-01-16T15:42:53;1.10;99.90
9762;DHT22;4920;49.594;11.022;2024-01-16T15:45:24;1.10;99.90
9762;DHT22;4920;49.594;11.022;2024-01-16T15:47:54;1.10;99.90
9762;DHT22;4920;49.594;11.022;2024-01-16T15:50:23;1.00;99.90
9762;DHT22;4920;49.594;11.022;2024-01-16T15:52:55;1.00;99.90
9762;DHT22;4920;49.594;11.022;2024-01-16T15:55:25;0.90;99.90
9762;DHT22;4920;49.594;11.022;2024-01-16T15:57:54;0.80;99.90
9762;DHT22;4920;49.594;11.022;2024-01-16T16:00:23;0.70;99.90
9762;DHT22;4920;49.594;11.022;2024-01-16T16:02:52;0.60;99.90
9762;DHT22;4920;49.594;11.022;2024-01-16T16:05:21;0.60;99.90
9762;DHT22;4920;49.594;11.022;2024-01-16T16:07:54;0.50;99.90
9762;DHT22;4920;49.594;11.022;2024-01-16T16:10:24;0.40;99.90
9762;DHT22;4920;49.594;11.022;2024-01-16T16:12:54;0.40;99.90
9762;DHT22;4920;49.594;11.022;2024-01-16T16:15:23;0.40;99.90
9762;DHT22;4920;49.594;11.022;2024-01-16T16:17:52;0.30;99.90
9762;DHT22;4920;49.594;11.022;2024-01-16T16:20:24;0.20;99.90